createdAt,value
2016-05-17T00:00:51.797Z,10.14
2016-05-17T00:01:51.815Z,10.03
2016-05-17T00:02:51.865Z,10.07
2016-05-17T00:03:51.930Z,10.01
2016-05-17T00:04:51.933Z,10
2016-05-17T00:05:51.982Z,10.01
2016-05-17T00:06:52.344Z,10.04
2016-05-17T00:07:52.050Z,9.99
2016-05-17T00:08:52.083Z,9.94
2016-05-17T00:09:52.102Z,9.99
2016-05-17T00:10:52.199Z,10.03
2016-05-17T00:11:52.030Z,9.99
2016-05-17T00:12:52.236Z,9.96
2016-05-17T00:13:52.254Z,10.04
2016-05-17T00:14:52.303Z,10.03
2016-05-17T00:15:52.321Z,10.07
2016-05-17T00:16:52.215Z,10
2016-05-17T00:17:52.452Z,10.07
2016-05-17T00:18:52.454Z,9.99
2016-05-17T00:19:52.474Z,10.01
2016-05-17T00:20:52.538Z,10.09
2016-05-17T00:21:52.916Z,9.99
2016-05-17T00:22:52.591Z,9.99
2016-05-17T00:23:52.640Z,10.04
2016-05-17T00:24:52.690Z,10.04
2016-05-17T00:25:52.692Z,10.04
2016-05-17T00:26:52.742Z,10
2016-05-17T00:27:52.807Z,10.03
2016-05-17T00:28:52.810Z,10.14
2016-05-17T00:29:52.859Z,10.15
2016-05-17T00:30:52.565Z,10.01
2016-05-17T00:31:52.958Z,10.01
2016-05-17T00:32:52.852Z,10.04
2016-05-17T00:33:53.011Z,9.99
2016-05-17T00:34:53.044Z,10.04
2016-05-17T00:35:53.078Z,10.07
2016-05-17T00:36:53.097Z,10.03
2016-05-17T00:37:53.147Z,10
2016-05-17T00:38:53.181Z,9.99
2016-05-17T00:39:53.277Z,10.04
2016-05-17T00:40:53.092Z,10.03
2016-05-17T00:41:53.282Z,9.94
2016-05-17T00:42:53.378Z,9.99
2016-05-17T00:43:53.381Z,9.93
2016-05-17T00:44:53.103Z,9.94
2016-05-17T00:45:53.434Z,9.93
2016-05-17T00:46:53.374Z,9.96
2016-05-17T00:47:53.392Z,9.88
2016-05-17T00:48:53.395Z,9.85
2016-05-17T00:49:53.476Z,9.88
2016-05-17T00:50:53.634Z,9.85
2016-05-17T00:51:54.106Z,9.86
2016-05-17T00:52:53.702Z,9.91
2016-05-17T00:53:53.580Z,9.83
2016-05-17T00:54:53.785Z,9.78
2016-05-17T00:55:53.648Z,9.82
2016-05-17T00:56:53.838Z,9.89
2016-05-17T00:57:53.872Z,9.83
2016-05-17T00:58:53.906Z,9.86
2016-05-17T00:59:53.799Z,9.82
2016-05-17T01:00:54.037Z,9.83
2016-05-17T01:01:54.071Z,9.82
2016-05-17T01:02:54.073Z,9.78
2016-05-17T01:03:53.935Z,9.78
2016-05-17T01:04:54.141Z,9.71
2016-05-17T01:05:54.019Z,9.78
2016-05-17T01:06:54.255Z,9.73
2016-05-17T01:07:54.087Z,9.71
2016-05-17T01:08:54.323Z,9.7
2016-05-17T01:09:54.311Z,9.75
2016-05-17T01:10:54.361Z,9.66
2016-05-17T01:11:54.425Z,9.67
2016-05-17T01:12:54.459Z,9.68
2016-05-17T01:13:54.462Z,9.61
2016-05-17T01:14:54.496Z,9.66
2016-05-17T01:15:54.546Z,9.66
2016-05-17T01:16:54.580Z,9.7
2016-05-17T01:17:54.598Z,9.56
2016-05-17T01:18:54.663Z,9.53
2016-05-17T01:19:54.697Z,9.57
2016-05-17T01:20:54.606Z,9.53
2016-05-17T01:21:54.765Z,9.53
2016-05-17T01:22:54.815Z,9.6
2016-05-17T01:23:54.832Z,9.6
2016-05-17T01:24:54.851Z,9.58
2016-05-17T01:25:54.744Z,9.6
2016-05-17T01:26:54.794Z,9.48
2016-05-17T01:27:54.984Z,9.45
2016-05-17T01:28:55.002Z,9.6
2016-05-17T01:29:55.036Z,9.5
2016-05-17T01:30:55.086Z,9.56
2016-05-17T01:31:55.104Z,9.49
2016-05-17T01:32:55.106Z,9.5
2016-05-17T01:33:55.282Z,9.57
2016-05-17T01:34:55.237Z,9.53
2016-05-17T01:35:55.131Z,9.57
2016-05-17T01:36:55.306Z,9.56
2016-05-17T01:37:55.386Z,9.6
2016-05-17T01:38:55.389Z,9.56
2016-05-17T01:39:55.266Z,9.58
2016-05-17T01:40:55.284Z,9.52
2016-05-17T01:41:55.334Z,9.52
2016-05-17T01:42:55.556Z,9.61
2016-05-17T01:43:55.558Z,9.57
2016-05-17T01:44:55.592Z,9.6
2016-05-17T01:45:55.735Z,9.61
2016-05-17T01:46:55.675Z,9.56
2016-05-17T01:47:55.694Z,9.58
2016-05-17T01:48:55.571Z,9.63
2016-05-17T01:49:55.825Z,9.57
2016-05-17T01:50:55.811Z,9.58
2016-05-17T01:51:55.705Z,9.53
2016-05-17T01:52:55.974Z,9.52
2016-05-17T01:53:55.929Z,9.52
2016-05-17T01:54:55.963Z,9.53
2016-05-17T01:55:55.996Z,9.56
2016-05-17T01:56:56.046Z,9.53
2016-05-17T01:57:56.065Z,9.46
2016-05-17T01:58:55.943Z,9.46
2016-05-17T01:59:56.132Z,9.52
2016-05-17T02:00:56.245Z,9.5
2016-05-17T02:01:56.216Z,9.48
2016-05-17T02:02:56.250Z,9.42
2016-05-17T02:03:56.300Z,9.5
2016-05-17T02:04:56.333Z,9.48
2016-05-17T02:05:56.352Z,9.52
2016-05-17T02:06:56.245Z,9.52
2016-05-17T02:07:56.451Z,9.49
2016-05-17T02:08:56.376Z,9.52
2016-05-17T02:09:56.487Z,9.42
2016-05-17T02:10:56.537Z,9.49
2016-05-17T02:11:56.431Z,9.43
2016-05-17T02:12:56.605Z,9.42
2016-05-17T02:13:56.639Z,9.39
2016-05-17T02:14:56.689Z,9.45
2016-05-17T02:15:56.769Z,9.45
2016-05-17T02:16:56.741Z,9.53
2016-05-17T02:17:56.791Z,9.45
2016-05-17T02:18:56.855Z,9.43
2016-05-17T02:19:56.578Z,9.38
2016-05-17T02:20:56.891Z,9.34
2016-05-17T02:21:56.941Z,9.34
2016-05-17T02:22:56.976Z,9.38
2016-05-17T02:23:57.010Z,9.38
2016-05-17T02:24:57.044Z,9.4
2016-05-17T02:25:57.077Z,9.25
2016-05-17T02:26:57.112Z,9.27
2016-05-17T02:27:57.161Z,9.23
2016-05-17T02:28:57.179Z,9.21
2016-05-17T02:29:57.245Z,9.2
2016-05-17T02:30:57.310Z,9.15
2016-05-17T02:31:57.157Z,9.13
2016-05-17T02:32:57.174Z,9.23
2016-05-17T02:33:57.052Z,9.18
2016-05-17T02:34:57.476Z,9.21
2016-05-17T02:35:57.448Z,9.27
2016-05-17T02:36:57.497Z,9.25
2016-05-17T02:37:57.688Z,9.16
2016-05-17T02:38:57.394Z,9.23
2016-05-17T02:39:57.662Z,9.18
2016-05-17T02:40:57.509Z,9.27
2016-05-17T02:41:57.370Z,9.23
2016-05-17T02:42:57.701Z,9.18
2016-05-17T02:43:57.578Z,9.21
2016-05-17T02:44:57.831Z,9.16
2016-05-17T02:45:57.803Z,9.2
2016-05-17T02:46:57.837Z,9.23
2016-05-17T02:47:57.887Z,9.16
2016-05-17T02:48:57.749Z,9.2
2016-05-17T02:49:57.954Z,9.12
2016-05-17T02:50:58.004Z,9.09
2016-05-17T02:51:58.055Z,9.06
2016-05-17T02:52:58.057Z,9.02
2016-05-17T02:53:58.106Z,8.94
2016-05-17T02:54:58.124Z,9.05
2016-05-17T02:55:58.205Z,8.97
2016-05-17T02:56:58.193Z,8.99
2016-05-17T02:57:58.085Z,8.97
2016-05-17T02:58:58.323Z,8.97
2016-05-17T02:59:58.326Z,9.02
2016-05-17T03:00:58.360Z,9.05
2016-05-17T03:01:58.393Z,9.05
2016-05-17T03:02:58.427Z,9.05
2016-05-17T03:03:58.461Z,8.96
2016-05-17T03:04:58.495Z,8.96
2016-05-17T03:05:58.545Z,9.01
2016-05-17T03:06:58.734Z,9.04
2016-05-17T03:07:58.487Z,9.05
2016-05-17T03:08:58.475Z,9.05
2016-05-17T03:09:58.523Z,9.05
2016-05-17T03:10:58.558Z,9.01
2016-05-17T03:11:58.764Z,9.09
2016-05-17T03:12:58.782Z,8.99
2016-05-17T03:13:58.816Z,9.02
2016-05-17T03:14:58.897Z,8.99
2016-05-17T03:15:58.743Z,9.02
2016-05-17T03:16:58.762Z,9.06
2016-05-17T03:17:58.967Z,9.04
2016-05-17T03:18:59.002Z,9.04
2016-05-17T03:19:59.036Z,8.99
2016-05-17T03:20:58.944Z,8.99
2016-05-17T03:21:59.149Z,8.96
2016-05-17T03:22:59.137Z,9.09
2016-05-17T03:23:59.171Z,9.13
2016-05-17T03:24:59.205Z,9.06
2016-05-17T03:25:59.285Z,9.05
2016-05-17T03:26:59.319Z,9.01
2016-05-17T03:27:59.229Z,9.05
2016-05-17T03:28:59.419Z,9.05
2016-05-17T03:29:59.499Z,9.02
2016-05-17T03:30:59.127Z,9.06
2016-05-17T03:31:59.457Z,9.01
2016-05-17T03:32:59.352Z,9.02
2016-05-17T03:33:59.527Z,9.1
2016-05-17T03:34:59.591Z,9.05
2016-05-17T03:35:59.610Z,9.05
2016-05-17T03:37:00.440Z,9.05
2016-05-17T03:37:59.678Z,9.06
2016-05-17T03:38:59.726Z,8.97
2016-05-17T03:39:59.809Z,9.06
2016-05-17T03:40:59.795Z,9.01
2016-05-17T03:41:59.829Z,8.94
2016-05-17T03:42:59.894Z,9.01
2016-05-17T03:43:59.897Z,8.97
2016-05-17T03:44:59.931Z,8.96
2016-05-17T03:45:59.980Z,8.96
2016-05-17T03:46:59.998Z,8.94
2016-05-17T03:48:00.032Z,8.93
2016-05-17T03:48:59.926Z,8.86
2016-05-17T03:49:59.944Z,8.93
2016-05-17T03:50:59.993Z,9.02
2016-05-17T03:52:00.528Z,8.99
2016-05-17T03:53:00.218Z,8.96
2016-05-17T03:54:00.267Z,8.86
2016-05-17T03:55:00.285Z,8.86
2016-05-17T03:56:00.335Z,8.9
2016-05-17T03:57:00.354Z,8.88
2016-05-17T03:58:00.419Z,8.86
2016-05-17T03:59:00.452Z,8.88
2016-05-17T04:00:00.455Z,8.88
2016-05-17T04:01:00.505Z,8.84
2016-05-17T04:02:00.585Z,8.87
2016-05-17T04:03:00.588Z,8.94
2016-05-17T04:04:00.606Z,8.86
2016-05-17T04:05:00.672Z,8.9
2016-05-17T04:06:00.691Z,8.93
2016-05-17T04:07:00.724Z,8.94
2016-05-17T04:08:00.602Z,8.93
2016-05-17T04:09:00.839Z,8.97
2016-05-17T04:10:00.842Z,8.93
2016-05-17T04:11:00.891Z,8.93
2016-05-17T04:12:00.925Z,8.99
2016-05-17T04:13:00.928Z,8.91
2016-05-17T04:14:00.962Z,8.94
2016-05-17T04:15:01.011Z,9.02
2016-05-17T04:16:01.045Z,8.99
2016-05-17T04:17:00.970Z,9.06
2016-05-17T04:18:01.113Z,9.06
2016-05-17T04:19:01.163Z,9.02
2016-05-17T04:20:01.071Z,9.05
2016-05-17T04:21:01.231Z,9.16
2016-05-17T04:22:01.437Z,9.12
2016-05-17T04:23:01.299Z,9.02
2016-05-17T04:24:01.380Z,9.2
2016-05-17T04:25:01.366Z,9.15
2016-05-17T04:26:01.400Z,9.24
2016-05-17T04:27:01.449Z,9.2
2016-05-17T04:28:01.468Z,9.2
2016-05-17T04:29:01.361Z,9.2
2016-05-17T04:30:01.568Z,9.27
2016-05-17T04:31:01.460Z,9.31
2016-05-17T04:32:01.619Z,9.38
2016-05-17T04:33:01.654Z,9.31
2016-05-17T04:34:01.718Z,9.34
2016-05-17T04:35:01.752Z,9.38
2016-05-17T04:36:01.754Z,9.28
2016-05-17T04:37:01.821Z,9.32
2016-05-17T04:38:01.871Z,9.32
2016-05-17T04:39:01.607Z,9.32
2016-05-17T04:40:01.923Z,9.3
2016-05-17T04:41:01.987Z,9.43
2016-05-17T04:42:01.865Z,9.43
2016-05-17T04:43:02.023Z,9.42
2016-05-17T04:44:01.901Z,9.45
2016-05-17T04:45:02.108Z,9.4
2016-05-17T04:46:02.126Z,9.45
2016-05-17T04:47:01.864Z,9.4
2016-05-17T04:48:02.209Z,9.34
2016-05-17T04:49:02.119Z,9.32
2016-05-17T04:50:02.292Z,9.25
2016-05-17T04:51:02.311Z,9.43
2016-05-17T04:52:02.751Z,9.28
2016-05-17T04:53:02.426Z,9.31
2016-05-17T04:54:02.258Z,9.35
2016-05-17T04:55:02.306Z,9.42
2016-05-17T04:56:02.559Z,9.35
2016-05-17T04:57:02.546Z,9.32
2016-05-17T04:58:02.564Z,9.35
2016-05-17T04:59:02.614Z,9.43
2016-05-17T05:00:02.710Z,9.48
2016-05-17T05:01:02.697Z,9.56
2016-05-17T05:02:02.700Z,9.53
2016-05-17T05:03:04.000Z,9.5
2016-05-17T05:04:02.830Z,9.52
2016-05-17T05:05:02.818Z,9.57
2016-05-17T05:06:02.851Z,9.5
2016-05-17T05:07:03.088Z,9.49
2016-05-17T05:08:02.950Z,9.49
2016-05-17T05:09:02.968Z,9.49
2016-05-17T05:10:03.025Z,9.43
2016-05-17T05:11:03.132Z,9.4
2016-05-17T05:12:03.194Z,9.43
2016-05-17T05:13:03.114Z,9.31
2016-05-17T05:14:03.379Z,9.4
2016-05-17T05:15:03.254Z,9.34
2016-05-17T05:16:03.179Z,9.32
2016-05-17T05:17:03.463Z,9.34
2016-05-17T05:18:03.590Z,9.35
2016-05-17T05:19:03.640Z,9.3
2016-05-17T05:20:03.512Z,9.32
2016-05-17T05:21:03.708Z,9.3
2016-05-17T05:22:03.591Z,9.43
2016-05-17T05:23:03.786Z,9.34
2016-05-17T05:24:03.840Z,9.35
2016-05-17T05:25:03.910Z,9.38
2016-05-17T05:26:03.915Z,9.34
2016-05-17T05:27:03.951Z,9.32
2016-05-17T05:28:03.986Z,9.3
2016-05-17T05:29:04.038Z,9.34
2016-05-17T05:30:04.073Z,9.35
2016-05-17T05:31:04.092Z,9.32
2016-05-17T05:32:04.017Z,9.38
2016-05-17T05:33:04.208Z,9.34
2016-05-17T05:34:04.259Z,9.4
2016-05-17T05:35:04.089Z,9.35
2016-05-17T05:36:04.124Z,9.34
2016-05-17T05:37:04.518Z,9.38
2016-05-17T05:38:05.834Z,9.31
2016-05-17T05:39:04.915Z,9.3
2016-05-17T05:40:04.465Z,9.32
2016-05-17T05:41:04.654Z,9.46
2016-05-17T05:42:04.501Z,9.48
2016-05-17T05:43:04.535Z,9.48
2016-05-17T05:44:04.741Z,9.48
2016-05-17T05:45:04.806Z,9.45
2016-05-17T05:46:04.496Z,9.53
2016-05-17T05:47:05.155Z,9.57
2016-05-17T05:48:04.892Z,9.6
2016-05-17T05:49:04.818Z,9.63
2016-05-17T05:50:04.819Z,9.64
2016-05-17T05:51:07.884Z,9.63
2016-05-17T05:52:04.637Z,9.76
2016-05-17T05:53:04.953Z,9.73
2016-05-17T05:54:04.768Z,9.66
2016-05-17T05:55:04.818Z,9.7
2016-05-17T05:56:05.054Z,9.79
2016-05-17T05:57:05.057Z,9.76
2016-05-17T05:58:05.154Z,9.81
2016-05-17T05:59:05.031Z,9.79
2016-05-17T06:00:07.144Z,9.89
2016-05-17T06:01:05.240Z,9.93
2016-05-17T06:02:05.227Z,9.96
2016-05-17T06:03:05.527Z,9.96
2016-05-17T06:04:05.592Z,9.94
2016-05-17T06:05:05.188Z,9.93
2016-05-17T06:06:05.378Z,10
2016-05-17T06:07:05.896Z,10.04
2016-05-17T06:08:05.540Z,10
2016-05-17T06:09:05.511Z,10.01
2016-05-17T06:10:06.296Z,10.06
2016-05-17T06:11:05.594Z,10.1
2016-05-17T06:12:05.722Z,10.09
2016-05-17T06:13:05.756Z,10.12
2016-05-17T06:14:05.665Z,10.04
2016-05-17T06:16:10.733Z,10.07
2016-05-17T06:16:39.064Z,9.99
2016-05-17T06:17:34.285Z,10.03
2016-05-17T06:18:33.679Z,9.97
2016-05-17T06:19:33.712Z,10.09
2016-05-17T06:20:34.622Z,10.09
2016-05-17T06:21:34.062Z,10.03
2016-05-17T06:22:33.908Z,10.1
2016-05-17T06:23:34.083Z,10.04
2016-05-17T06:24:33.914Z,10.1
2016-05-17T06:25:33.885Z,10.01
2016-05-17T06:26:33.748Z,10.03
2016-05-17T06:27:34.235Z,9.99
2016-05-17T06:28:35.174Z,10.04
2016-05-17T06:29:36.178Z,10.12
2016-05-17T06:30:36.602Z,10.14
2016-05-17T06:31:37.292Z,10.04
2016-05-17T06:32:37.045Z,10.14
2016-05-17T06:33:38.126Z,10.15
2016-05-17T06:34:37.706Z,10.25
2016-05-17T06:35:37.412Z,10.34
2016-05-17T06:36:39.072Z,10.36
2016-05-17T06:37:40.855Z,10.42
2016-05-17T06:38:37.999Z,10.52
2016-05-17T06:39:38.251Z,10.53
2016-05-17T06:40:38.097Z,10.51
2016-05-17T06:41:41.132Z,10.6
2016-05-17T06:42:38.478Z,10.66
2016-05-17T06:43:37.449Z,10.63
2016-05-17T06:44:38.046Z,10.84
2016-05-17T06:45:36.268Z,10.76
2016-05-17T06:46:37.410Z,10.86
2016-05-17T06:47:37.007Z,10.98
2016-05-17T06:48:35.712Z,11.03
2016-05-17T06:49:36.278Z,11.01
2016-05-17T06:50:36.109Z,11.07
2016-05-17T06:51:37.362Z,11.2
2016-05-17T06:52:36.348Z,11.14
2016-05-17T06:53:36.710Z,11.21
2016-05-17T06:54:36.042Z,11.29
2016-05-17T06:55:35.012Z,11.28
2016-05-17T06:56:35.078Z,11.17
2016-05-17T06:57:35.064Z,11.13
2016-05-17T06:58:35.631Z,11.09
2016-05-17T06:59:35.523Z,11.01
2016-05-17T07:00:37.245Z,11.02
2016-05-17T07:01:36.310Z,11.01
2016-05-17T07:02:36.156Z,11.02
2016-05-17T07:03:35.519Z,10.81
2016-05-17T07:04:35.599Z,10.76
2016-05-17T07:05:36.196Z,10.91
2016-05-17T07:06:36.949Z,10.84
2016-05-17T07:07:36.405Z,10.89
2016-05-17T07:08:35.375Z,10.86
2016-05-17T07:09:35.550Z,10.92
2016-05-17T07:10:35.630Z,10.99
2016-05-17T07:11:35.696Z,10.99
2016-05-17T07:12:35.808Z,11.02
2016-05-17T07:13:36.343Z,11.21
2016-05-17T07:14:40.610Z,11.34
2016-05-17T07:15:36.644Z,11.34
2016-05-17T07:16:37.038Z,11.36
2016-05-17T07:17:36.650Z,11.56
2016-05-17T07:18:37.449Z,11.64
2016-05-17T07:19:36.812Z,11.62
2016-05-17T07:20:36.001Z,11.62
2016-05-17T07:21:35.926Z,11.57
2016-05-17T07:22:36.132Z,11.65
2016-05-17T07:23:36.056Z,11.67
2016-05-17T07:24:36.138Z,11.7
2016-05-17T07:25:35.734Z,11.72
2016-05-17T07:26:36.237Z,11.75
2016-05-17T07:27:36.240Z,11.8
2016-05-17T07:28:36.961Z,11.65
2016-05-17T07:29:36.307Z,11.62
2016-05-17T07:30:36.341Z,11.62
2016-05-17T07:31:36.828Z,11.54
2016-05-17T07:32:36.581Z,11.49
2016-05-17T07:33:36.928Z,11.44
2016-05-17T07:34:37.711Z,11.49
2016-05-17T07:35:37.683Z,11.39
2016-05-17T07:36:37.670Z,11.29
2016-05-17T07:37:37.875Z,11.32
2016-05-17T07:38:39.488Z,11.27
2016-05-17T07:39:37.506Z,11.11
2016-05-17T07:40:39.665Z,11.16
2016-05-17T07:41:38.777Z,11.14
2016-05-17T07:42:38.592Z,11.11
2016-05-17T07:43:38.548Z,11.03
2016-05-17T07:44:38.676Z,10.98
2016-05-17T07:45:38.178Z,11.11
2016-05-17T07:46:38.635Z,11.16
2016-05-17T07:47:41.403Z,11.09
2016-05-17T07:48:38.733Z,11.13
2016-05-17T07:49:38.580Z,11.25
2016-05-17T07:50:39.863Z,11.25
2016-05-17T07:51:38.648Z,11.2
2016-05-17T07:52:37.838Z,11.31
2016-05-17T07:53:38.606Z,11.32
2016-05-17T07:54:38.968Z,11.34
2016-05-17T07:55:38.548Z,11.53
2016-05-17T07:56:38.599Z,11.39
2016-05-17T07:57:37.773Z,11.43
2016-05-17T07:58:38.729Z,11.39
2016-05-17T07:59:38.904Z,11.41
2016-05-17T08:00:40.187Z,11.43
2016-05-17T08:01:39.034Z,11.35
2016-05-17T08:02:40.818Z,11.29
2016-05-17T08:03:39.211Z,11.32
2016-05-17T08:04:39.011Z,11.29
2016-05-17T08:05:39.060Z,11.46
2016-05-17T08:06:39.939Z,11.39
2016-05-17T08:07:39.347Z,11.47
2016-05-17T08:08:39.693Z,11.43
2016-05-17T08:09:38.212Z,11.57
2016-05-17T08:10:39.699Z,11.64
2016-05-17T08:11:39.170Z,11.64
2016-05-17T08:12:40.189Z,11.77
2016-05-17T08:13:40.925Z,11.82
2016-05-17T08:14:40.538Z,11.89
2016-05-17T08:15:39.665Z,11.9
2016-05-17T08:16:39.746Z,11.94
2016-05-17T08:17:39.936Z,11.97
2016-05-17T08:18:39.923Z,12.13
2016-05-17T08:19:39.738Z,12.23
2016-05-17T08:20:40.163Z,12.27
2016-05-17T08:21:41.540Z,12.49
2016-05-17T08:22:40.247Z,12.59
2016-05-17T08:23:38.702Z,12.78
2016-05-17T08:24:39.065Z,12.95
2016-05-17T08:25:39.723Z,13.09
2016-05-17T08:26:40.304Z,13.21
2016-05-17T08:27:39.026Z,13.18
2016-05-17T08:28:39.231Z,13.21
2016-05-17T08:29:39.843Z,13.12
2016-05-17T08:30:40.581Z,13.02
2016-05-17T08:31:43.099Z,12.88
2016-05-17T08:32:40.383Z,12.82
2016-05-17T08:33:38.386Z,12.74
2016-05-17T08:34:40.154Z,12.63
2016-05-17T08:35:38.860Z,12.48
2016-05-17T08:36:39.878Z,12.51
2016-05-17T08:37:38.787Z,12.41
2016-05-17T08:38:41.884Z,12.3
2016-05-17T08:39:40.355Z,12.31
2016-05-17T08:40:39.498Z,12.27
2016-05-17T08:41:39.455Z,12.2
2016-05-17T08:42:39.660Z,12.2
2016-05-17T08:43:39.147Z,12.15
2016-05-17T08:44:39.212Z,12.23
2016-05-17T08:45:40.011Z,12.05
2016-05-17T08:46:40.249Z,12.04
2016-05-17T08:47:41.017Z,11.97
2016-05-17T08:48:40.910Z,11.9
2016-05-17T08:49:42.413Z,11.89
2016-05-17T08:50:40.384Z,11.93
2016-05-17T08:51:41.168Z,11.93
2016-05-17T08:52:41.484Z,11.97
2016-05-17T08:53:40.987Z,11.94
2016-05-17T08:54:39.599Z,12.08
2016-05-17T08:55:40.632Z,12.13
2016-05-17T08:56:43.073Z,12.37
2016-05-17T08:57:42.529Z,12.48
2016-05-17T08:58:41.125Z,12.67
2016-05-17T08:59:41.737Z,12.89
2016-05-17T09:00:41.209Z,13.04
2016-05-17T09:01:41.914Z,13.12
2016-05-17T09:02:39.620Z,13.22
2016-05-17T09:03:40.934Z,13.46
2016-05-17T09:04:39.953Z,13.62
2016-05-17T09:05:41.190Z,13.73
2016-05-17T09:06:42.521Z,13.81
2016-05-17T09:07:42.024Z,13.88
2016-05-17T09:08:41.042Z,14.06
2016-05-17T09:09:40.717Z,14.06
2016-05-17T09:10:41.923Z,14.13
2016-05-17T09:11:41.222Z,14.24
2016-05-17T09:12:41.428Z,14.28
2016-05-17T09:13:40.665Z,14.28
2016-05-17T09:14:40.481Z,14.27
2016-05-17T09:15:40.655Z,14.38
2016-05-17T09:16:44.299Z,14.35
2016-05-17T09:17:40.722Z,14.47
2016-05-17T09:18:44.304Z,14.65
2016-05-17T09:19:40.431Z,14.81
2016-05-17T09:20:40.605Z,14.99
2016-05-17T09:21:41.796Z,15.11
2016-05-17T09:22:41.080Z,15.15
2016-05-17T09:23:40.724Z,15.28
2016-05-17T09:24:40.773Z,15.39
2016-05-17T09:25:40.666Z,15.33
2016-05-17T09:26:40.857Z,15.54
2016-05-17T09:27:40.906Z,15.66
2016-05-17T09:28:41.971Z,15.81
2016-05-17T09:29:40.990Z,15.89
2016-05-17T09:30:41.023Z,15.85
2016-05-17T09:31:41.464Z,15.76
2016-05-17T09:32:41.576Z,15.63
2016-05-17T09:33:41.157Z,15.52
2016-05-17T09:34:47.706Z,15.49
2016-05-17T09:35:41.225Z,15.33
2016-05-17T09:36:41.743Z,15.36
2016-05-17T09:37:42.011Z,15.26
2016-05-17T09:38:43.873Z,15.19
2016-05-17T09:39:45.923Z,15.09
2016-05-17T09:40:46.769Z,15.06
2016-05-17T09:41:46.912Z,14.98
2016-05-17T09:42:50.603Z,14.93
2016-05-17T09:43:48.542Z,14.83
2016-05-17T09:44:45.436Z,14.72
2016-05-17T09:45:44.126Z,14.71
2016-05-17T09:46:45.910Z,14.61
2016-05-17T09:47:43.319Z,14.53
2016-05-17T09:48:44.618Z,14.35
2016-05-17T09:49:42.590Z,14.21
2016-05-17T09:50:42.155Z,14.21
2016-05-17T09:51:41.908Z,14.24
2016-05-17T09:52:41.802Z,14.13
2016-05-17T09:53:43.039Z,14.31
2016-05-17T09:54:42.165Z,14.46
2016-05-17T09:55:42.091Z,14.69
2016-05-17T09:56:42.469Z,14.88
2016-05-17T09:57:41.987Z,15.12
2016-05-17T09:58:43.568Z,15.17
2016-05-17T09:59:42.085Z,15.33
2016-05-17T10:00:42.370Z,15.36
2016-05-17T10:01:42.170Z,15.38
2016-05-17T10:02:42.562Z,15.28
2016-05-17T10:03:42.596Z,15.21
2016-05-17T10:04:44.787Z,15.12
2016-05-17T10:05:42.523Z,14.98
2016-05-17T10:06:43.698Z,14.99
2016-05-17T10:07:43.232Z,14.94
2016-05-17T10:08:42.626Z,14.87
2016-05-17T10:09:43.566Z,14.8
2016-05-17T10:10:43.162Z,14.75
2016-05-17T10:11:42.742Z,14.68
2016-05-17T10:12:42.778Z,14.53
2016-05-17T10:13:42.795Z,14.56
2016-05-17T10:14:43.564Z,14.53
2016-05-17T10:15:44.661Z,14.54
2016-05-17T10:16:42.913Z,14.65
2016-05-17T10:17:44.072Z,14.74
2016-05-17T10:18:43.309Z,14.87
2016-05-17T10:19:42.968Z,15.02
2016-05-17T10:20:43.424Z,15.08
2016-05-17T10:21:43.114Z,15.05
2016-05-17T10:22:43.726Z,15.21
2016-05-17T10:23:43.197Z,15.3
2016-05-17T10:24:44.309Z,15.26
2016-05-17T10:25:43.328Z,15.38
2016-05-17T10:26:43.471Z,15.33
2016-05-17T10:27:43.223Z,15.36
2016-05-17T10:28:43.399Z,15.35
2016-05-17T10:29:44.463Z,15.35
2016-05-17T10:30:43.497Z,15.43
2016-05-17T10:31:43.454Z,15.51
2016-05-17T10:32:43.549Z,15.49
2016-05-17T10:33:43.615Z,15.43
2016-05-17T10:34:43.649Z,15.38
2016-05-17T10:35:43.682Z,15.27
2016-05-17T10:36:43.809Z,15.19
2016-05-17T10:37:43.798Z,15.11
2016-05-17T10:38:43.831Z,15.06
2016-05-17T10:39:44.647Z,15.08
2016-05-17T10:40:43.931Z,15.08
2016-05-17T10:41:43.965Z,15.03
2016-05-17T10:42:43.811Z,15.31
2016-05-17T10:43:43.845Z,15.42
2016-05-17T10:44:44.223Z,15.45
2016-05-17T10:45:44.100Z,15.59
2016-05-17T10:46:44.119Z,15.54
2016-05-17T10:47:44.169Z,15.59
2016-05-17T10:48:44.217Z,15.81
2016-05-17T10:49:44.283Z,15.97
2016-05-17T10:50:44.755Z,16.14
2016-05-17T10:51:44.601Z,16.27
2016-05-17T10:52:44.369Z,16.55
2016-05-17T10:53:44.778Z,16.81
2016-05-17T10:54:44.327Z,16.96
2016-05-17T10:55:44.346Z,17.04
2016-05-17T10:56:44.411Z,17.26
2016-05-17T10:57:44.632Z,17.74
2016-05-17T10:58:44.494Z,18.17
2016-05-17T10:59:44.544Z,18.57
2016-05-17T11:00:44.719Z,19.23
2016-05-17T11:01:44.815Z,19.88
2016-05-17T11:02:44.943Z,20.86
2016-05-17T11:03:44.945Z,21.79
2016-05-17T11:04:44.979Z,22.64
2016-05-17T11:05:44.951Z,23.6
2016-05-17T11:06:45.297Z,24.32
2016-05-17T11:07:45.034Z,24.39
2016-05-17T11:08:45.365Z,24.04
2016-05-17T11:09:45.134Z,23.62
2016-05-17T11:10:45.183Z,22.83
2016-05-17T11:11:45.076Z,21.9
2016-05-17T11:12:45.422Z,21.04
2016-05-17T11:13:46.566Z,20.43
2016-05-17T11:14:45.209Z,19.8
2016-05-17T11:15:45.821Z,19.18
2016-05-17T11:16:45.292Z,18.57
2016-05-17T11:17:45.514Z,18.02
2016-05-17T11:18:46.658Z,17.54
2016-05-17T11:19:45.630Z,17.1
2016-05-17T11:20:45.648Z,16.78
2016-05-17T11:21:45.884Z,16.41
2016-05-17T11:22:45.558Z,16.26
2016-05-17T11:23:46.203Z,16.2
2016-05-17T11:24:45.908Z,16
2016-05-17T11:25:45.708Z,15.96
2016-05-17T11:26:45.961Z,15.86
2016-05-17T11:27:46.119Z,15.76
2016-05-17T11:28:45.982Z,15.66
2016-05-17T11:29:46.015Z,15.67
2016-05-17T11:30:46.049Z,15.57
2016-05-17T11:31:46.083Z,15.52
2016-05-17T11:32:46.118Z,15.42
2016-05-17T11:33:46.167Z,15.39
2016-05-17T11:34:46.060Z,15.38
2016-05-17T11:35:46.141Z,15.38
2016-05-17T11:36:46.393Z,15.33
2016-05-17T11:37:46.255Z,15.42
2016-05-17T11:38:46.431Z,15.42
2016-05-17T11:39:46.448Z,15.24
2016-05-17T11:40:47.842Z,15.24
2016-05-17T11:41:46.517Z,15.27
2016-05-17T11:42:46.566Z,15.41
2016-05-17T11:43:46.584Z,15.39
2016-05-17T11:44:46.633Z,15.35
2016-05-17T11:45:46.667Z,15.3
2016-05-17T11:46:46.920Z,15.31
2016-05-17T11:47:46.908Z,15.24
2016-05-17T11:48:46.785Z,15.24
2016-05-17T11:49:46.975Z,15.21
2016-05-17T11:50:47.150Z,15.21
2016-05-17T11:51:47.433Z,15.38
2016-05-17T11:52:47.093Z,15.46
2016-05-17T11:53:46.830Z,15.52
2016-05-17T11:54:47.035Z,15.81
2016-05-17T11:55:47.116Z,15.92
2016-05-17T11:56:47.119Z,15.85
2016-05-17T11:57:48.949Z,15.78
2016-05-17T11:58:47.047Z,15.72
2016-05-17T11:59:47.269Z,15.57
2016-05-17T12:00:47.379Z,15.46
2016-05-17T12:01:47.163Z,15.31
2016-05-17T12:02:47.354Z,15.21
2016-05-17T12:03:47.435Z,15.17
2016-05-17T12:04:47.453Z,15.17
2016-05-17T12:05:47.582Z,15.2
2016-05-17T12:06:47.584Z,15.19
2016-05-17T12:07:47.586Z,15.05
2016-05-17T12:08:47.667Z,15.09
2016-05-17T12:09:47.498Z,15.02
2016-05-17T12:10:47.781Z,14.93
2016-05-17T12:11:48.128Z,14.86
2016-05-17T12:12:47.928Z,14.93
2016-05-17T12:13:47.900Z,14.93
2016-05-17T12:14:47.808Z,14.94
2016-05-17T12:15:47.905Z,14.91
2016-05-17T12:16:47.939Z,14.98
2016-05-17T12:17:48.003Z,14.98
2016-05-17T12:18:48.022Z,14.99
2016-05-17T12:19:48.072Z,14.95
2016-05-17T12:20:48.137Z,14.99
2016-05-17T12:21:48.639Z,14.93
2016-05-17T12:22:49.111Z,14.88
2016-05-17T12:23:48.191Z,14.94
2016-05-17T12:24:48.288Z,14.84
2016-05-17T12:25:48.932Z,14.75
2016-05-17T12:26:48.341Z,14.64
2016-05-17T12:27:48.405Z,14.5
2016-05-17T12:28:48.408Z,14.44
2016-05-17T12:29:48.505Z,14.34
2016-05-17T12:30:48.508Z,14.29
2016-05-17T12:31:48.573Z,14.16
2016-05-17T12:32:48.685Z,14.17
2016-05-17T12:33:48.625Z,14.1
2016-05-17T12:34:48.784Z,14.06
2016-05-17T12:35:48.709Z,13.99
2016-05-17T12:36:49.039Z,13.92
2016-05-17T12:37:48.776Z,13.92
2016-05-17T12:38:48.904Z,13.84
2016-05-17T12:39:49.032Z,13.83
2016-05-17T12:40:48.925Z,13.79
2016-05-17T12:41:48.959Z,13.74
2016-05-17T12:42:49.368Z,13.76
2016-05-17T12:43:48.871Z,13.74
2016-05-17T12:44:48.920Z,13.71
2016-05-17T12:45:49.157Z,13.7
2016-05-17T12:46:49.145Z,13.73
2016-05-17T12:47:49.225Z,13.7
2016-05-17T12:48:50.805Z,13.83
2016-05-17T12:49:49.277Z,13.79
2016-05-17T12:50:50.342Z,13.77
2016-05-17T12:51:49.845Z,13.83
2016-05-17T12:52:49.269Z,13.83
2016-05-17T12:53:49.428Z,13.88
2016-05-17T12:54:49.447Z,13.94
2016-05-17T12:55:49.434Z,13.95
2016-05-17T12:56:49.984Z,14.09
2016-05-17T12:57:49.533Z,14.14
2016-05-17T12:58:49.457Z,14.14
2016-05-17T12:59:49.491Z,14.25
2016-05-17T13:00:49.713Z,14.19
2016-05-17T13:01:49.763Z,14.32
2016-05-17T13:02:49.844Z,14.19
2016-05-17T13:03:49.830Z,14.17
2016-05-17T13:04:49.927Z,14.19
2016-05-17T13:05:49.946Z,14.13
2016-05-17T13:06:49.995Z,14.09
2016-05-17T13:07:49.966Z,13.98